createdAt,value
2018-03-21T00:00:05.937Z,1027.86
2018-03-21T00:01:05.650Z,1027.83
2018-03-21T00:02:05.272Z,1027.81
2018-03-21T00:03:05.753Z,1027.83
2018-03-21T00:04:27.157Z,1027.81
2018-03-21T00:05:27.583Z,1027.84
2018-03-21T00:06:27.872Z,1027.84
2018-03-21T00:07:27.306Z,1027.82
2018-03-21T00:08:27.140Z,1027.82
2018-03-21T00:09:27.257Z,1027.86
2018-03-21T00:10:27.550Z,1027.83
2018-03-21T00:12:12.062Z,1027.84
2018-03-21T00:13:33.380Z,1027.85
2018-03-21T00:14:33.769Z,1027.86
2018-03-21T00:15:34.403Z,1027.86
2018-03-21T00:16:34.138Z,1027.91
2018-03-21T00:17:34.134Z,1027.89
2018-03-21T00:18:34.501Z,1027.90
2018-03-21T00:19:33.456Z,1027.89
2018-03-21T00:20:33.306Z,1027.91
2018-03-21T00:21:34.359Z,1027.93
2018-03-21T00:22:34.050Z,1027.95
2018-03-21T00:23:57.029Z,1027.94
2018-03-21T00:24:57.559Z,1027.97
2018-03-21T00:25:57.937Z,1027.94
2018-03-21T00:26:56.884Z,1027.95
2018-03-21T00:27:56.888Z,1027.97
2018-03-21T00:28:56.653Z,1027.97
2018-03-21T00:29:57.073Z,1027.99
2018-03-21T00:30:57.128Z,1027.94
2018-03-21T00:31:57.483Z,1027.97
2018-03-21T00:32:56.550Z,1027.94
2018-03-21T00:33:57.290Z,1027.93
2018-03-21T00:34:57.701Z,1027.93
2018-03-21T00:35:57.006Z,1027.94
2018-03-21T00:36:56.758Z,1027.92
2018-03-21T00:38:19.265Z,1027.94
2018-03-21T00:39:19.897Z,1027.91
2018-03-21T00:40:19.060Z,1027.92
2018-03-21T00:41:41.346Z,1027.91
2018-03-21T00:42:41.888Z,1027.94
2018-03-21T00:44:04.363Z,1027.91
2018-03-21T00:45:04.873Z,1027.92
2018-03-21T00:46:04.339Z,1027.91
2018-03-21T00:47:04.196Z,1027.93
2018-03-21T00:48:04.919Z,1027.92
2018-03-21T00:49:04.226Z,1027.95
2018-03-21T00:50:04.687Z,1027.91
2018-03-21T00:51:03.584Z,1027.95
2018-03-21T00:52:25.338Z,1027.92
2018-03-21T00:53:26.425Z,1027.96
2018-03-21T00:54:25.238Z,1027.96
2018-03-21T00:55:26.659Z,1027.96
2018-03-21T00:56:25.646Z,1027.92
2018-03-21T00:57:26.184Z,1027.91
2018-03-21T00:58:48.357Z,1027.97
2018-03-21T00:59:48.771Z,1027.95
2018-03-21T01:00:49.329Z,1027.93
2018-03-21T01:02:10.869Z,1027.95
2018-03-21T01:03:11.343Z,1027.94
2018-03-21T01:04:11.885Z,1027.93
2018-03-21T01:05:10.790Z,1027.94
2018-03-21T01:06:11.274Z,1027.92
2018-03-21T01:07:11.101Z,1027.94
2018-03-21T01:08:11.033Z,1027.94
2018-03-21T01:09:10.842Z,1027.95
2018-03-21T01:11:17.336Z,1027.94
2018-03-21T01:12:18.857Z,1027.98
2018-03-21T01:13:40.564Z,1027.95
2018-03-21T01:14:40.875Z,1027.95
2018-03-21T01:15:41.349Z,1027.91
2018-03-21T01:16:40.185Z,1027.89
2018-03-21T01:17:41.145Z,1027.92
2018-03-21T01:19:26.703Z,1027.89
2018-03-21T01:20:26.888Z,1027.85
2018-03-21T01:21:27.302Z,1027.86
2018-03-21T01:22:26.273Z,1027.89
2018-03-21T01:23:48.552Z,1027.92
2018-03-21T01:25:10.733Z,1027.87
2018-03-21T01:26:10.557Z,1027.87
2018-03-21T01:27:11.908Z,1027.89
2018-03-21T01:28:11.490Z,1027.85
2018-03-21T01:29:11.010Z,1027.91
2018-03-21T01:30:32.862Z,1027.88
2018-03-21T01:31:34.126Z,1027.85
2018-03-21T01:32:34.443Z,1027.86
2018-03-21T01:33:33.545Z,1027.84
2018-03-21T01:34:33.952Z,1027.87
2018-03-21T01:35:44.923Z,1027.85
2018-03-21T01:36:44.950Z,1027.84
2018-03-21T01:37:45.260Z,1027.90
2018-03-21T01:38:45.618Z,1027.89
2018-03-21T01:39:44.637Z,1027.87
2018-03-21T01:41:29.621Z,1027.81
2018-03-21T01:42:51.967Z,1027.83
2018-03-21T01:43:52.282Z,1027.86
2018-03-21T01:44:52.679Z,1027.84
2018-03-21T01:45:53.010Z,1027.83
2018-03-21T01:46:52.345Z,1027.81
2018-03-21T01:47:52.211Z,1027.80
2018-03-21T01:49:14.733Z,1027.76
2018-03-21T01:50:15.088Z,1027.79
2018-03-21T01:51:14.908Z,1027.78
2018-03-21T01:52:15.187Z,1027.81
2018-03-21T01:53:15.518Z,1027.82
2018-03-21T01:54:14.414Z,1027.78
2018-03-21T01:55:36.677Z,1027.80
2018-03-21T01:56:36.931Z,1027.77
2018-03-21T01:57:37.383Z,1027.79
2018-03-21T01:58:36.555Z,1027.80
2018-03-21T01:59:36.988Z,1027.80
2018-03-21T02:00:37.785Z,1027.80
2018-03-21T02:01:37.308Z,1027.83
2018-03-21T02:02:58.174Z,1027.85
2018-03-21T02:03:58.022Z,1027.81
2018-03-21T02:04:58.371Z,1027.81
2018-03-21T02:06:42.224Z,1027.78
2018-03-21T02:08:04.255Z,1027.82
2018-03-21T02:09:05.715Z,1027.77
2018-03-21T02:10:05.190Z,1027.80
2018-03-21T02:11:05.629Z,1027.76
2018-03-21T02:12:05.057Z,1027.77
2018-03-21T02:13:04.857Z,1027.77
2018-03-21T02:14:05.442Z,1027.80
2018-03-21T02:15:04.334Z,1027.73
2018-03-21T02:16:05.682Z,1027.75
2018-03-21T02:17:04.994Z,1027.79
2018-03-21T02:18:05.350Z,1027.75
2018-03-21T02:19:05.117Z,1027.79
2018-03-21T02:20:04.827Z,1027.79
2018-03-21T02:21:04.559Z,1027.75
2018-03-21T02:22:04.962Z,1027.74
2018-03-21T02:23:05.373Z,1027.80
2018-03-21T02:24:05.764Z,1027.80
2018-03-21T02:25:04.667Z,1027.86
2018-03-21T02:26:05.082Z,1027.81
2018-03-21T02:27:05.341Z,1027.83
2018-03-21T02:28:05.770Z,1027.80
2018-03-21T02:29:05.214Z,1027.82
2018-03-21T02:30:05.517Z,1027.79
2018-03-21T02:31:04.976Z,1027.82
2018-03-21T02:32:05.368Z,1027.84
2018-03-21T02:33:05.153Z,1027.84
2018-03-21T02:34:04.966Z,1027.83
2018-03-21T02:35:05.472Z,1027.83
2018-03-21T02:36:04.890Z,1027.81
2018-03-21T02:37:05.412Z,1027.86
2018-03-21T02:38:04.773Z,1027.86
2018-03-21T02:39:05.378Z,1027.86
2018-03-21T02:40:04.874Z,1027.85
2018-03-21T02:41:27.236Z,1027.83
2018-03-21T02:42:27.810Z,1027.85
2018-03-21T02:43:27.129Z,1027.90
2018-03-21T02:44:27.517Z,1027.89
2018-03-21T02:45:28.058Z,1027.89
2018-03-21T02:46:26.849Z,1027.92
2018-03-21T02:47:27.529Z,1027.88
2018-03-21T02:48:28.125Z,1027.90
2018-03-21T02:49:27.467Z,1027.92
2018-03-21T02:50:49.077Z,1027.92
2018-03-21T02:51:50.428Z,1027.97
2018-03-21T02:52:49.936Z,1027.98
2018-03-21T02:53:50.334Z,1027.97
2018-03-21T02:54:49.942Z,1028.00
2018-03-21T02:55:50.543Z,1027.99
2018-03-21T02:57:33.857Z,1027.97
2018-03-21T02:58:34.485Z,1027.99
2018-03-21T02:59:56.169Z,1028.00
2018-03-21T03:00:56.601Z,1027.99
2018-03-21T03:02:19.606Z,1027.95
2018-03-21T03:03:20.922Z,1027.97
2018-03-21T03:04:19.817Z,1027.98
2018-03-21T03:05:20.237Z,1027.99
2018-03-21T03:06:20.651Z,1027.94
2018-03-21T03:07:21.623Z,1027.93
2018-03-21T03:08:20.936Z,1027.93
2018-03-21T03:09:19.721Z,1027.93
2018-03-21T03:10:20.515Z,1027.91
2018-03-21T03:11:20.999Z,1027.94
2018-03-21T03:12:20.497Z,1027.93
2018-03-21T03:13:20.899Z,1027.89
2018-03-21T03:14:20.086Z,1027.94
2018-03-21T03:15:20.428Z,1027.93
2018-03-21T03:16:20.657Z,1027.92
2018-03-21T03:17:20.917Z,1027.98
2018-03-21T03:18:20.364Z,1027.92
2018-03-21T03:19:20.972Z,1027.90
2018-03-21T03:20:20.292Z,1027.97
2018-03-21T03:21:20.533Z,1027.95
2018-03-21T03:22:20.421Z,1027.92
2018-03-21T03:23:21.010Z,1027.95
2018-03-21T03:24:20.231Z,1027.96
2018-03-21T03:25:19.860Z,1027.94
2018-03-21T03:26:20.194Z,1027.96
2018-03-21T03:27:20.162Z,1027.95
2018-03-21T03:28:19.971Z,1027.95
2018-03-21T03:29:19.952Z,1027.96
2018-03-21T03:30:20.098Z,1027.96
2018-03-21T03:31:20.361Z,1027.98
2018-03-21T03:32:20.152Z,1027.98
2018-03-21T03:33:20.150Z,1027.96
2018-03-21T03:34:20.365Z,1028.02
2018-03-21T03:35:20.581Z,1028.03
2018-03-21T03:36:20.940Z,1028.05
2018-03-21T03:37:20.333Z,1028.08
2018-03-21T03:38:20.555Z,1028.07
2018-03-21T03:39:43.514Z,1028.06
2018-03-21T03:40:43.691Z,1028.12
2018-03-21T03:41:43.271Z,1028.11
2018-03-21T03:42:43.655Z,1028.07
2018-03-21T03:43:43.947Z,1028.03
2018-03-21T03:44:42.770Z,1027.99
2018-03-21T03:45:42.998Z,1027.96
2018-03-21T03:46:42.897Z,1027.93
2018-03-21T03:47:43.198Z,1027.97
2018-03-21T03:48:43.768Z,1027.95
2018-03-21T03:49:43.062Z,1027.93
2018-03-21T03:50:43.481Z,1027.95
2018-03-21T03:51:43.879Z,1027.93
2018-03-21T03:52:43.177Z,1027.94
2018-03-21T03:53:42.928Z,1027.91
2018-03-21T03:54:43.354Z,1027.91
2018-03-21T03:55:43.224Z,1027.91
2018-03-21T03:56:43.090Z,1027.89
2018-03-21T03:57:43.324Z,1027.88
2018-03-21T03:58:44.563Z,1027.90
2018-03-21T03:59:43.401Z,1027.92
2018-03-21T04:00:43.982Z,1027.96
2018-03-21T04:01:42.895Z,1027.95
2018-03-21T04:02:43.222Z,1027.94
2018-03-21T04:03:43.519Z,1027.98
2018-03-21T04:04:43.342Z,1027.95
2018-03-21T04:05:43.147Z,1027.97
2018-03-21T04:06:43.615Z,1028.01
2018-03-21T04:07:43.382Z,1028.02
2018-03-21T04:08:43.162Z,1028.03
2018-03-21T04:10:07.464Z,1028.02
2018-03-21T04:11:09.352Z,1027.96
2018-03-21T04:12:09.018Z,1027.88
2018-03-21T04:13:07.853Z,1027.95
2018-03-21T04:14:08.561Z,1027.96
2018-03-21T04:15:09.337Z,1027.96
2018-03-21T04:16:30.849Z,1028.02
2018-03-21T04:17:31.118Z,1028.06
2018-03-21T04:18:31.538Z,1027.99
2018-03-21T04:19:30.413Z,1027.99
2018-03-21T04:20:31.320Z,1028.00
2018-03-21T04:21:32.029Z,1027.96
2018-03-21T04:22:31.320Z,1027.93
2018-03-21T04:23:31.759Z,1027.97
2018-03-21T04:24:30.991Z,1027.97
2018-03-21T04:25:52.992Z,1027.97
2018-03-21T04:26:52.782Z,1027.95
2018-03-21T04:28:15.247Z,1027.92
2018-03-21T04:29:14.979Z,1027.90
2018-03-21T04:30:14.832Z,1027.86
2018-03-21T04:31:16.305Z,1027.93
2018-03-21T04:32:15.605Z,1027.93
2018-03-21T04:33:15.843Z,1027.91
2018-03-21T04:34:15.944Z,1027.89
2018-03-21T04:35:15.523Z,1027.93
2018-03-21T04:36:16.120Z,1027.94
2018-03-21T04:37:15.481Z,1027.95
2018-03-21T04:38:15.856Z,1027.93
2018-03-21T04:39:14.891Z,1027.91
2018-03-21T04:40:14.659Z,1027.93
2018-03-21T04:41:16.060Z,1027.95
2018-03-21T04:42:14.917Z,1027.95
2018-03-21T04:43:15.380Z,1027.94
2018-03-21T04:44:15.450Z,1027.98
2018-03-21T04:45:15.201Z,1027.98
2018-03-21T04:46:15.580Z,1027.99
2018-03-21T04:47:15.802Z,1027.93
2018-03-21T04:48:15.038Z,1027.94
2018-03-21T04:49:15.465Z,1027.98
2018-03-21T04:50:15.446Z,1027.96
2018-03-21T04:51:37.805Z,1027.98
2018-03-21T04:52:38.312Z,1027.96
2018-03-21T04:53:39.263Z,1027.96
2018-03-21T04:54:38.221Z,1027.98
2018-03-21T04:55:37.949Z,1028.00
2018-03-21T04:56:37.837Z,1027.95
2018-03-21T04:57:38.248Z,1027.99
2018-03-21T04:58:38.558Z,1028.01
2018-03-21T04:59:37.917Z,1028.04
2018-03-21T05:00:38.606Z,1028.04
2018-03-21T05:01:38.059Z,1027.95
2018-03-21T05:02:38.575Z,1027.95
2018-03-21T05:03:38.156Z,1027.98
2018-03-21T05:04:38.270Z,1027.97
2018-03-21T05:05:38.289Z,1027.93
2018-03-21T05:06:38.777Z,1027.97
2018-03-21T05:08:00.422Z,1027.93
2018-03-21T05:09:00.604Z,1027.94
2018-03-21T05:10:01.012Z,1027.95
2018-03-21T05:11:00.751Z,1027.93
2018-03-21T05:12:00.742Z,1027.94
2018-03-21T05:13:01.144Z,1027.91
2018-03-21T05:14:00.494Z,1027.86
2018-03-21T05:15:00.667Z,1027.92
2018-03-21T05:16:00.709Z,1027.92
2018-03-21T05:17:24.679Z,1027.93
2018-03-21T05:18:24.445Z,1027.95
2018-03-21T05:19:25.227Z,1028.00
2018-03-21T05:20:24.031Z,1028.04
2018-03-21T05:21:25.543Z,1028.02
2018-03-21T05:22:24.435Z,1028.07
2018-03-21T05:23:24.987Z,1028.07
2018-03-21T05:24:25.673Z,1028.05
2018-03-21T05:25:46.892Z,1028.08
2018-03-21T05:26:47.597Z,1028.08
2018-03-21T05:27:48.363Z,1028.08
2018-03-21T05:28:48.243Z,1028.10
2018-03-21T05:29:47.145Z,1028.11
2018-03-21T05:30:47.488Z,1028.12
2018-03-21T05:31:47.704Z,1028.05
2018-03-21T05:32:47.800Z,1028.08
2018-03-21T05:34:10.835Z,1028.07
2018-03-21T05:35:10.252Z,1028.07
2018-03-21T05:36:32.513Z,1028.11
2018-03-21T05:37:33.043Z,1028.13
2018-03-21T05:38:32.703Z,1028.17
2018-03-21T05:39:54.548Z,1028.18
2018-03-21T05:40:54.840Z,1028.18
2018-03-21T05:41:55.486Z,1028.17
2018-03-21T05:42:55.114Z,1028.18
2018-03-21T05:43:56.688Z,1028.21
2018-03-21T05:45:24.236Z,1028.21
2018-03-21T05:45:55.981Z,1028.18
2018-03-21T05:46:55.472Z,1028.22
2018-03-21T05:47:55.390Z,1028.17
2018-03-21T05:48:56.091Z,1028.21
2018-03-21T05:49:55.774Z,1028.21
2018-03-21T05:50:54.929Z,1028.18
2018-03-21T05:51:55.535Z,1028.16
2018-03-21T05:52:55.188Z,1028.22
2018-03-21T05:53:56.082Z,1028.21
2018-03-21T05:54:55.578Z,1028.25
2018-03-21T05:56:38.538Z,1028.29
2018-03-21T05:58:24.167Z,1028.27
2018-03-21T05:59:24.847Z,1028.33
2018-03-21T06:00:24.476Z,1028.29
2018-03-21T06:01:24.100Z,1028.28
2018-03-21T06:02:23.284Z,1028.27
2018-03-21T06:03:23.516Z,1028.26
2018-03-21T06:04:47.055Z,1028.33
2018-03-21T06:05:47.869Z,1028.40
2018-03-21T06:07:10.110Z,1028.43
2018-03-21T06:08:09.319Z,1028.49
2018-03-21T06:09:10.142Z,1028.47
2018-03-21T06:10:09.956Z,1028.48
2018-03-21T06:11:55.338Z,1028.54
2018-03-21T06:13:18.282Z,1028.55
2018-03-21T06:14:41.366Z,1028.53
2018-03-21T06:15:42.325Z,1028.53
2018-03-21T06:16:41.838Z,1028.51
2018-03-21T06:17:42.089Z,1028.49
2018-03-21T06:18:42.643Z,1028.47
2018-03-21T06:19:42.395Z,1028.47
2018-03-21T06:20:41.345Z,1028.22
2018-03-21T06:21:41.433Z,1028.50
2018-03-21T06:22:42.068Z,1028.49
2018-03-21T06:24:04.930Z,1028.46
2018-03-21T06:25:05.525Z,1028.47
2018-03-21T06:26:05.328Z,1028.45
2018-03-21T06:27:05.814Z,1028.45
2018-03-21T06:28:05.454Z,1028.47
2018-03-21T06:29:05.176Z,1028.47
2018-03-21T06:30:05.947Z,1028.44
2018-03-21T06:31:04.988Z,1028.41
2018-03-21T06:32:05.378Z,1028.42
2018-03-21T06:33:05.228Z,1028.38
2018-03-21T06:34:05.305Z,1028.43
2018-03-21T06:35:06.010Z,1028.41
2018-03-21T06:36:05.463Z,1028.40
2018-03-21T06:37:27.285Z,1028.38
2018-03-21T06:38:50.104Z,1028.39
2018-03-21T06:39:50.394Z,1028.33
2018-03-21T06:40:51.217Z,1028.31
2018-03-21T06:41:52.005Z,1028.37
2018-03-21T06:42:50.969Z,1028.32
2018-03-21T06:43:50.393Z,1028.35
2018-03-21T06:44:51.581Z,1028.33
2018-03-21T06:46:13.787Z,1028.29
2018-03-21T06:47:37.164Z,1028.34
2018-03-21T06:48:36.931Z,1028.30
2018-03-21T06:49:37.373Z,1028.34
2018-03-21T06:50:35.768Z,1028.33
2018-03-21T06:51:36.476Z,1028.38
2018-03-21T06:52:39.104Z,1028.43
2018-03-21T06:54:08.766Z,1028.37
2018-03-21T06:55:01.836Z,1028.38
2018-03-21T06:56:14.133Z,1028.34
2018-03-21T06:57:03.162Z,1028.37
2018-03-21T06:58:05.432Z,1028.32
2018-03-21T06:59:06.497Z,1028.30
2018-03-21T07:00:09.820Z,1028.28
2018-03-21T07:01:42.173Z,1028.26
2018-03-21T07:03:48.213Z,1028.33
2018-03-21T07:05:12.571Z,1028.41
2018-03-21T07:06:35.927Z,1028.36
2018-03-21T07:07:38.216Z,1028.36
2018-03-21T07:08:37.666Z,1028.36
2018-03-21T07:09:36.530Z,1028.38
2018-03-21T07:10:38.867Z,1028.41
2018-03-21T07:11:36.027Z,1028.39
2018-03-21T07:12:36.150Z,1028.41
2018-03-21T07:14:05.166Z,1028.42
2018-03-21T07:14:59.716Z,1028.43
2018-03-21T07:16:30.274Z,1028.44
2018-03-21T07:17:28.776Z,1028.44
2018-03-21T07:18:28.402Z,1028.45
2018-03-21T07:19:27.553Z,1028.49
2018-03-21T07:20:28.299Z,1028.50
2018-03-21T07:21:50.255Z,1028.55
2018-03-21T07:22:50.652Z,1028.53
2018-03-21T07:24:13.681Z,1028.59
2018-03-21T07:25:13.860Z,1028.60
2018-03-21T07:26:14.230Z,1028.62
2018-03-21T07:27:13.953Z,1028.61
2018-03-21T07:28:13.760Z,1028.60
2018-03-21T07:29:14.577Z,1028.62
2018-03-21T07:30:14.505Z,1028.64
2018-03-21T07:31:15.312Z,1028.65
2018-03-21T07:32:13.607Z,1028.64
2018-03-21T07:33:13.963Z,1028.66
2018-03-21T07:34:14.939Z,1028.64
2018-03-21T07:35:14.303Z,1028.63
2018-03-21T07:36:39.223Z,1028.65
2018-03-21T07:37:38.110Z,1028.67
2018-03-21T07:38:37.682Z,1028.68
2018-03-21T07:39:38.354Z,1028.61
2018-03-21T07:40:38.291Z,1028.61
2018-03-21T07:41:37.652Z,1028.58
2018-03-21T07:42:38.430Z,1028.61
2018-03-21T07:43:37.786Z,1028.60
2018-03-21T07:44:38.506Z,1028.60
2018-03-21T07:45:38.291Z,1028.62
2018-03-21T07:46:37.700Z,1028.66
2018-03-21T07:47:38.933Z,1028.65
2018-03-21T07:48:38.620Z,1028.58
2018-03-21T07:50:03.224Z,1028.61
2018-03-21T07:51:00.574Z,1028.66
2018-03-21T07:52:00.831Z,1028.67
2018-03-21T07:53:00.893Z,1028.69
2018-03-21T07:54:01.661Z,1028.66
2018-03-21T07:55:01.357Z,1028.63
2018-03-21T07:56:23.689Z,1028.69
2018-03-21T07:57:24.282Z,1028.74
2018-03-21T07:58:23.411Z,1028.70
2018-03-21T07:59:24.202Z,1028.69
2018-03-21T08:00:46.511Z,1028.76
2018-03-21T08:01:47.484Z,1028.77
2018-03-21T08:02:46.906Z,1028.78
2018-03-21T08:03:46.673Z,1028.79
2018-03-21T08:04:48.376Z,1028.80
2018-03-21T08:05:46.457Z,1028.82
2018-03-21T08:06:48.176Z,1028.84
2018-03-21T08:08:31.873Z,1028.85
2018-03-21T08:09:32.648Z,1028.85
2018-03-21T08:10:31.699Z,1028.83
2018-03-21T08:11:32.112Z,1028.82
2018-03-21T08:12:32.782Z,1028.80
2018-03-21T08:13:32.408Z,1028.82
2018-03-21T08:14:32.054Z,1028.82
2018-03-21T08:15:32.132Z,1028.84
2018-03-21T08:16:32.865Z,1028.80
2018-03-21T08:17:32.673Z,1028.76
2018-03-21T08:18:32.381Z,1028.85
2018-03-21T08:19:32.235Z,1028.79
2018-03-21T08:20:32.106Z,1028.80
2018-03-21T08:21:57.557Z,1028.83
2018-03-21T08:22:57.340Z,1028.82
2018-03-21T08:23:57.546Z,1028.84
2018-03-21T08:24:57.303Z,1028.80
2018-03-21T08:25:57.435Z,1028.81
2018-03-21T08:26:57.113Z,1028.82
2018-03-21T08:27:57.598Z,1028.83
2018-03-21T08:28:57.257Z,1028.79
2018-03-21T08:29:58.219Z,1028.77
2018-03-21T08:30:57.810Z,1028.77
2018-03-21T08:31:57.421Z,1028.73
2018-03-21T08:32:58.074Z,1028.76
2018-03-21T08:34:00.955Z,1028.78
2018-03-21T08:34:57.413Z,1028.77
2018-03-21T08:35:57.966Z,1028.77
2018-03-21T08:37:20.165Z,1028.80
2018-03-21T08:38:21.243Z,1028.79
2018-03-21T08:39:20.373Z,1028.75
2018-03-21T08:40:20.440Z,1028.76
2018-03-21T08:41:20.038Z,1028.75
2018-03-21T08:42:21.053Z,1028.77
2018-03-21T08:43:20.488Z,1028.75
2018-03-21T08:44:42.714Z,1028.78
2018-03-21T08:45:43.598Z,1028.75
2018-03-21T08:46:43.305Z,1028.74
2018-03-21T08:47:45.330Z,1028.67
2018-03-21T08:48:43.011Z,1028.67
2018-03-21T08:49:43.770Z,1028.71
2018-03-21T08:50:44.075Z,1028.71
2018-03-21T08:51:44.430Z,1028.66
2018-03-21T08:52:42.495Z,1028.69
2018-03-21T08:53:43.968Z,1028.69
2018-03-21T08:54:43.898Z,1028.72
2018-03-21T08:55:43.173Z,1028.75
2018-03-21T08:56:43.081Z,1028.76
2018-03-21T08:58:05.818Z,1028.80
2018-03-21T08:59:07.584Z,1028.82
2018-03-21T09:00:06.894Z,1028.83
2018-03-21T09:01:06.607Z,1028.80
2018-03-21T09:02:05.872Z,1028.83
2018-03-21T09:03:06.448Z,1028.80
2018-03-21T09:04:06.289Z,1028.80
2018-03-21T09:05:06.583Z,1028.81
2018-03-21T09:06:06.840Z,1028.78
2018-03-21T09:07:06.881Z,1028.81
2018-03-21T09:08:06.654Z,1028.79
2018-03-21T09:09:28.132Z,1028.82
2018-03-21T09:10:28.684Z,1028.81
2018-03-21T09:11:50.724Z,1028.83
2018-03-21T09:13:37.762Z,1028.88
2018-03-21T09:14:37.276Z,1028.87
2018-03-21T09:15:36.838Z,1028.88
2018-03-21T09:16:59.364Z,1028.85
2018-03-21T09:18:21.995Z,1028.82
2018-03-21T09:19:22.716Z,1028.83
2018-03-21T09:20:22.291Z,1028.82
2018-03-21T09:21:23.131Z,1028.84
2018-03-21T09:22:22.880Z,1028.84
2018-03-21T09:23:22.531Z,1028.82
2018-03-21T09:24:23.158Z,1028.82
2018-03-21T09:25:22.263Z,1028.83
2018-03-21T09:26:44.994Z,1028.84
2018-03-21T09:27:45.730Z,1028.82
2018-03-21T09:28:44.995Z,1028.78
2018-03-21T09:29:45.690Z,1028.79
2018-03-21T09:31:07.506Z,1028.82
2018-03-21T09:32:08.741Z,1028.82
2018-03-21T09:33:07.360Z,1028.82
2018-03-21T09:34:08.116Z,1028.80
2018-03-21T09:35:07.707Z,1028.83
2018-03-21T09:36:08.361Z,1028.83
2018-03-21T09:37:30.252Z,1028.83
2018-03-21T09:38:30.944Z,1028.84
2018-03-21T09:39:31.576Z,1028.80
2018-03-21T09:40:31.222Z,1028.81
2018-03-21T09:41:30.838Z,1028.71
2018-03-21T09:42:30.955Z,1028.72
2018-03-21T09:44:15.092Z,1028.74
2018-03-21T09:45:15.622Z,1028.73
2018-03-21T09:46:15.350Z,1028.80
2018-03-21T09:47:15.015Z,1028.78
2018-03-21T09:48:15.746Z,1028.83
2018-03-21T09:49:15.930Z,1028.82
2018-03-21T09:50:15.049Z,1028.83
2018-03-21T09:51:15.732Z,1028.79
2018-03-21T09:52:15.438Z,1028.81
2018-03-21T09:53:15.625Z,1028.80
2018-03-21T09:54:15.349Z,1028.79
2018-03-21T09:55:16.408Z,1028.85
2018-03-21T09:56:15.620Z,1028.82
2018-03-21T09:57:14.602Z,1028.83
2018-03-21T09:58:15.872Z,1028.82
2018-03-21T09:59:14.948Z,1028.78
2018-03-21T10:00:15.700Z,1028.82
2018-03-21T10:01:14.836Z,1028.78
2018-03-21T10:02:15.263Z,1028.78
2018-03-21T10:03:15.785Z,1028.73
2018-03-21T10:04:14.841Z,1028.74
2018-03-21T10:05:15.476Z,1028.78
2018-03-21T10:06:15.424Z,1028.79
2018-03-21T10:07:15.120Z,1028.80
2018-03-21T10:08:15.616Z,1028.74
2018-03-21T10:09:37.653Z,1028.70
2018-03-21T10:10:38.465Z,1028.66
2018-03-21T10:11:37.990Z,1028.69
2018-03-21T10:12:38.528Z,1028.70
2018-03-21T10:13:38.705Z,1028.66
2018-03-21T10:14:37.772Z,1028.66
2018-03-21T10:15:38.446Z,1028.67
2018-03-21T10:16:38.739Z,1028.63
2018-03-21T10:17:38.477Z,1028.66
2018-03-21T10:18:38.106Z,1028.68
2018-03-21T10:20:00.783Z,1028.68
2018-03-21T10:21:00.560Z,1028.63
2018-03-21T10:22:01.376Z,1028.65
2018-03-21T10:23:00.434Z,1028.60
2018-03-21T10:24:00.930Z,1028.57
2018-03-21T10:25:01.264Z,1028.63
2018-03-21T10:26:01.274Z,1028.59
2018-03-21T10:27:00.875Z,1028.63
2018-03-21T10:28:01.029Z,1028.55
2018-03-21T10:29:00.460Z,1028.56
2018-03-21T10:30:01.142Z,1028.58
2018-03-21T10:31:00.647Z,1028.61
2018-03-21T10:32:00.808Z,1028.61
2018-03-21T10:33:00.162Z,1028.59
2018-03-21T10:34:00.989Z,1028.61
2018-03-21T10:35:00.621Z,1028.60
2018-03-21T10:36:01.259Z,1028.61
2018-03-21T10:37:00.751Z,1028.62
2018-03-21T10:38:44.455Z,1028.64
2018-03-21T10:39:45.153Z,1028.62
2018-03-21T10:40:44.809Z,1028.58
2018-03-21T10:41:44.911Z,1028.62
2018-03-21T10:42:44.871Z,1028.64
2018-03-21T10:43:44.748Z,1028.62
2018-03-21T10:44:44.613Z,1028.59
2018-03-21T10:45:45.186Z,1028.56
2018-03-21T10:46:45.440Z,1028.54
2018-03-21T10:47:45.172Z,1028.53
2018-03-21T10:48:44.757Z,1028.56
2018-03-21T10:49:44.086Z,1028.57
2018-03-21T10:50:44.112Z,1028.58
2018-03-21T10:51:44.723Z,1028.59
2018-03-21T10:52:44.369Z,1028.59
2018-03-21T10:53:44.475Z,1028.58
2018-03-21T10:54:45.199Z,1028.58
2018-03-21T10:55:45.014Z,1028.52
2018-03-21T10:56:44.532Z,1028.59
2018-03-21T10:57:45.003Z,1028.56
2018-03-21T10:58:44.626Z,1028.56
2018-03-21T10:59:45.312Z,1028.55
2018-03-21T11:00:44.781Z,1028.58
2018-03-21T11:01:44.209Z,1028.59
2018-03-21T11:02:45.410Z,1028.63
2018-03-21T11:03:44.748Z,1028.64
2018-03-21T11:05:07.126Z,1028.69
2018-03-21T11:06:08.186Z,1028.70
2018-03-21T11:07:30.609Z,1028.73
2018-03-21T11:08:30.681Z,1028.74
2018-03-21T11:09:31.114Z,1028.67
2018-03-21T11:10:30.797Z,1028.69
2018-03-21T11:11:31.404Z,1028.74
2018-03-21T11:12:30.515Z,1028.61
2018-03-21T11:13:31.131Z,1028.65
2018-03-21T11:14:30.259Z,1028.62
2018-03-21T11:15:53.304Z,1028.56
2018-03-21T11:16:53.967Z,1028.54
2018-03-21T11:17:53.136Z,1028.57
2018-03-21T11:19:13.604Z,1028.53
2018-03-21T11:20:13.646Z,1028.52
2018-03-21T11:21:13.728Z,1028.45
2018-03-21T11:22:13.929Z,1028.41
2018-03-21T11:23:14.695Z,1028.35
2018-03-21T11:24:37.893Z,1028.35
2018-03-21T11:26:00.710Z,1028.35
2018-03-21T11:27:01.520Z,1028.28
2018-03-21T11:28:00.939Z,1028.31
2018-03-21T11:29:23.928Z,1028.30
2018-03-21T11:30:23.993Z,1028.26
2018-03-21T11:31:24.503Z,1028.31
2018-03-21T11:32:24.580Z,1028.31
2018-03-21T11:33:24.207Z,1028.31
2018-03-21T11:34:24.812Z,1028.30
2018-03-21T11:35:24.797Z,1028.27
2018-03-21T11:36:24.273Z,1028.26
2018-03-21T11:37:24.828Z,1028.26
2018-03-21T11:38:24.514Z,1028.22
2018-03-21T11:39:23.648Z,1028.23
2018-03-21T11:40:25.390Z,1028.19
2018-03-21T11:41:23.999Z,1028.15
2018-03-21T11:42:24.494Z,1028.18
2018-03-21T11:43:46.374Z,1028.17
2018-03-21T11:44:46.836Z,1028.21
2018-03-21T11:45:46.453Z,1028.16
2018-03-21T11:46:46.815Z,1028.20
2018-03-21T11:48:09.401Z,1028.18
2018-03-21T11:49:32.808Z,1028.24
2018-03-21T11:50:32.277Z,1028.21
2018-03-21T11:51:32.594Z,1028.24
2018-03-21T11:52:31.984Z,1028.21
2018-03-21T11:53:32.596Z,1028.22
2018-03-21T11:54:54.447Z,1028.17
2018-03-21T11:55:54.812Z,1028.26
2018-03-21T11:56:55.484Z,1028.24
2018-03-21T11:57:55.072Z,1028.20
2018-03-21T11:58:54.875Z,1028.13
2018-03-21T11:59:55.695Z,1028.12
2018-03-21T12:00:55.235Z,1028.07
2018-03-21T12:01:55.066Z,1028.09
2018-03-21T12:02:55.589Z,1028.09
2018-03-21T12:03:54.864Z,1028.10
2018-03-21T12:04:55.165Z,1028.07
2018-03-21T12:05:55.526Z,1028.11
2018-03-21T12:06:54.651Z,1028.10
2018-03-21T12:08:40.060Z,1028.14
2018-03-21T12:09:40.752Z,1028.07
2018-03-21T12:10:40.189Z,1028.05
2018-03-21T12:12:47.663Z,1028.07
2018-03-21T12:14:10.090Z,1028.02
2018-03-21T12:15:32.854Z,1028.09
2018-03-21T12:16:33.509Z,1028.06
2018-03-21T12:17:32.633Z,1028.04
2018-03-21T12:18:32.791Z,1028.00
2018-03-21T12:19:33.866Z,1028.03
2018-03-21T12:20:33.774Z,1028.05
2018-03-21T12:21:32.997Z,1028.07
2018-03-21T12:22:35.949Z,1028.06
2018-03-21T12:23:33.411Z,1028.06
2018-03-21T12:24:32.869Z,1028.09
2018-03-21T12:25:33.628Z,1028.09
2018-03-21T12:26:33.331Z,1028.08
2018-03-21T12:27:55.470Z,1028.10
2018-03-21T12:28:55.427Z,1028.04
2018-03-21T12:30:18.076Z,1028.01
2018-03-21T12:31:18.745Z,1028.06
2018-03-21T12:32:19.310Z,1028.01
2018-03-21T12:33:18.855Z,1028.05
2018-03-21T12:34:18.613Z,1028.02
2018-03-21T12:35:19.190Z,1027.97
2018-03-21T12:36:18.790Z,1027.94
2018-03-21T12:37:41.806Z,1027.94
2018-03-21T12:38:42.706Z,1027.97
2018-03-21T12:39:42.287Z,1027.98
2018-03-21T12:41:05.281Z,1027.95
2018-03-21T12:42:04.742Z,1027.96
2018-03-21T12:43:04.166Z,1027.93
2018-03-21T12:44:05.848Z,1027.96
2018-03-21T12:45:04.611Z,1027.97
2018-03-21T12:46:05.220Z,1027.99
2018-03-21T12:47:27.471Z,1028.01
2018-03-21T12:48:27.209Z,1028.01
2018-03-21T12:49:27.976Z,1027.99
2018-03-21T12:50:27.294Z,1027.93
2018-03-21T12:51:27.819Z,1027.93